This is the latest recevied weather packets stored in our database for station/object SQ5DN-4. If no packets are shown the sender has not sent any weather packets the latest 10 day(s).
| Time | Temp. | Humidity | Pressure | Rain* | Wind** | Luminosity | Snow |
|---|---|---|---|---|---|---|---|
| 1777973862 | 25.56° C | 40% | 1005 hPa | - | - | - | - |
| 1777973352 | 26.11° C | 39% | 1005 hPa | - | - | - | - |
| 1777972862 | 26.11° C | 39% | 1005 hPa | - | - | - | - |
| 1777972321 | 24.44° C | 44% | 1006 hPa | - | - | - | - |
| 1777971807 | 25° C | 42% | 1006 hPa | - | - | - | - |
| 1777971307 | 24.44° C | 45% | 1006 hPa | - | - | - | - |
| 1777970712 | 24.44° C | 44% | 1006 hPa | - | - | - | - |
| 1777970146 | 23.89° C | 46% | 1006 hPa | - | - | - | - |
| 1777969606 | 23.89° C | 45% | 1006 hPa | - | - | - | - |
| 1777969027 | 23.89° C | 45% | 1006 hPa | - | - | - | - |
| 1777968506 | 23.33° C | 48% | 1006 hPa | - | - | - | - |
| 1777967987 | 23.33° C | 48% | 1006 hPa | - | - | - | - |
| 1777967392 | 22.78° C | 48% | 1006 hPa | - | - | - | - |
| 1777966872 | 22.78° C | 48% | 1006 hPa | - | - | - | - |
| 1777966340 | 22.22° C | 50% | 1006 hPa | - | - | - | - |
| 1777965852 | 22.22° C | 52% | 1006 hPa | - | - | - | - |
| 1777965276 | 22.22° C | 52% | 1006 hPa | - | - | - | - |
| 1777964687 | 22.22° C | 51% | 1006 hPa | - | - | - | - |
| 1777964127 | 21.67° C | 55% | 1006 hPa | - | - | - | - |
| 1777963587 | 20.56° C | 55% | 1006 hPa | - | - | - | - |
| 1777963047 | 20.56° C | 55% | 1006 hPa | - | - | - | - |
| 1777962452 | 20° C | 58% | 1006 hPa | - | - | - | - |
| 1777961856 | 18.89° C | 60% | 1006 hPa | - | - | - | - |
| 1777961272 | 18.89° C | 61% | 1006 hPa | - | - | - | - |
| 1777960717 | 18.33° C | 64% | 1006 hPa | - | - | - | - |
* Rain since midnight (hover to see other rain measurements)
** Current wind speed in m/s (hover to see current wind gust speed)